Eastpointe, West Virginia
Current Conditions -  °F | °C
As of 10:53 AM on Saturday 25 Oct 2014 (Local Time) from KCKB Reporting Station
Overcast Overcast  
Wind Chill: 53°   Ceiling: 4200
Heat Index: 53°   Visibility: 10mi
Dew Point: 44°   Wind: 7mph
Humidity: 71%   Direction: 210°SSW
Pressure: 30.02"   Gusts: NA
Location:  39.2808°N, 80.3447°W
Report Text: KCKB 251453Z 21006KT 10SM OVC042 12/07 A3002 RMK AO2 SLP163 T01170067 55001
Loading
Personal Weather Stations






























Interactive Weather Map
Tropical Storm Tracking
New forecast layout! Learn more

10-Day Weather Forecast

Advertisements
Track Severe Weather on mobile